Home > Products > Valid Products > TAF

000
FTUS46 KSEW 301500 AAB
TAFCLM
TAF AMD
KCLM 301504Z 3015/3112 24004KT P6SM SCT006 BKN060 OVC080
      TEMPO 3015/3018 P6SM -RA BKN006 OVC060
     FM301800 VRB03KT P6SM -RA SCT004 BKN012 OVC050
     FM310000 26006KT P6SM -RA BKN015 OVC040=



000
FTUS46 KSEW 301500 AAA
TAFSEA
TAF AMD
KSEA 301500Z 3015/3118 12012KT P6SM -RA BKN070 OVC200
     FM301700 12012KT P6SM -RA OVC050
     FM310000 18008KT P6SM -RA SCT015 OVC030
     FM311100 18006KT P6SM OVC015=



000
FTUS46 KSEW 301300 AAA
TAFCLM
TAF AMD
KCLM 301305Z 3013/3112 00000KT P6SM OVC004
     FM301700 VRB03KT P6SM -RA SCT004 BKN012 OVC050
     FM310000 26006KT P6SM -RA BKN015 OVC040=



000
FTUS46 KSEW 301100
TAFHQM
TAF
KHQM 301120Z 3012/3112 07008KT P6SM -RA OVC050
     FM301600 12014KT 5SM -RA BR OVC030
     FM302200 18012KT 4SM -RA BR OVC015
     FM310600 21007KT P6SM -RA OVC015=



000
FTUS46 KSEW 301100
TAFBFI
TAF
KBFI 301120Z 3012/3112 VRB03KT P6SM -RA BKN050 OVC090
     FM301700 12008KT P6SM -RA OVC050
     FM310000 18008KT P6SM -RA SCT020 OVC035
     FM311100 18006KT P6SM OVC018=



000
FTUS46 KSEW 301100
TAFCLM
TAF
KCLM 301120Z 3012/3112 VRB03KT P6SM -RA BKN012 OVC050
     FM310000 26006KT P6SM -RA BKN015 OVC040=



000
FTUS46 KSEW 301100
TAFBLI
TAF
KBLI 301120Z 3012/3112 04007KT P6SM BKN050 OVC090
     FM301700 12014KT P6SM -RA OVC050
     FM310000 16012KT P6SM -RA SCT015 OVC030
     FM311100 18006KT P6SM OVC015=



000
FTUS46 KSEW 301100
TAFPAE
TAF
KPAE 301120Z 3012/3112 12010KT P6SM -RA BKN050 OVC090
     FM301700 12012KT P6SM -RA OVC050
     FM310000 18008KT P6SM -RA SCT015 OVC030
     FM311100 18006KT P6SM OVC015=



000
FTUS46 KSEW 301100
TAFSEA
TAF
KSEA 301120Z 3012/3118 VRB03KT P6SM -RA BKN050 OVC090
     FM301700 12010KT P6SM -RA OVC050
     FM310000 18008KT P6SM -RA SCT015 OVC030
     FM311100 18006KT P6SM OVC015=



000
FTUS46 KSEW 301100
TAFOLM
TAF
KOLM 301120Z 3012/3112 VRB03KT P6SM -RA BKN050 OVC090
     FM301700 12005KT P6SM -RA OVC050
     FM310000 18006KT P6SM -RA SCT015 OVC030
     FM310600 18006KT P6SM OVC015=



000
FTUS46 KSEW 301000 AAA
TAFCLM
TAF AMD
KCLM 301038Z 3011/3106 VRB03KT P6SM BKN012 OVC070
     FM301400 07003KT P6SM -RA SCT015 OVC050
     FM302200 07003KT 3SM -RA BR SCT008 OVC020=



000
FTUS46 KSEW 301000 AAA
TAFCLM
TAF AMD
KCLM 301038Z 3011/3106 VRB03KT P6SM BKN012 OVC070
     FM301400 07003KT P6SM -RA SCT015 OVC050
     FM302200 07003KT 3SM -RA BR SCT008 OVC020=



000
FTUS46 KSEW 300500
TAFSEA
TAF
KSEA 300520Z 3006/3112 12006KT P6SM SCT070 BKN200
     FM301000 08006KT P6SM BKN050 OVC120
     FM301400 07010KT P6SM -RA OVC050
     FM302200 11008KT 5SM -RA BR SCT015 OVC030=



000
FTUS46 KSEW 300500
TAFCLM
TAF
KCLM 300520Z 3006/3106 VRB03KT P6SM SCT070 BKN200
     FM301000 VRB03KT P6SM OVC090
     FM301400 07003KT P6SM -RA SCT025 OVC050
     FM302200 07003KT 3SM -RA BR SCT008 OVC020=



000
FTUS46 KSEW 300500
TAFBFI
TAF
KBFI 300520Z 3006/3106 00000KT P6SM SCT070 BKN200
     FM301000 VRB03KT P6SM BKN050 OVC120
     FM301400 VRB03KT P6SM -RA OVC050
     FM302200 12006KT P6SM -RA SCT020 OVC035=



000
FTUS46 KSEW 300500
TAFPAE
TAF
KPAE 300520Z 3006/3106 11008KT P6SM SCT070 BKN200
     FM301000 11008KT P6SM BKN050 OVC120
     FM301400 11008KT P6SM -RA OVC050
     FM302200 15012KT 4SM -RA BR SCT011 OVC025=



000
FTUS46 KSEW 300500
TAFHQM
TAF
KHQM 300520Z 3006/3106 07007KT P6SM SCT060 OVC120
     FM301000 07007KT P6SM -RA SCT030 OVC045
     FM301500 09012KT 5SM -RA BR OVC030
     FM302200 15014KT 4SM -RA BR SCT010 OVC022=



000
FTUS46 KSEW 300500
TAFBLI
TAF
KBLI 300520Z 3006/3106 04006KT P6SM SCT070 BKN200
     FM301000 04006KT P6SM BKN060 OVC200
     FM301400 04005KT P6SM -RA OVC050
     FM302200 06010KT 5SM -RA BR OVC035=



000
FTUS46 KSEW 300500
TAFOLM
TAF
KOLM 300520Z 3006/3106 00000KT 5SM BR SCT002 SCT060 BKN200
      TEMPO 3006/3010 1/2SM FG VV002
     FM301000 VRB02KT 5SM -RA BR SCT025 OVC040
     FM301600 VRB02KT 4SM -RA BR SCT008 OVC018
     FM302200 18006KT 3SM -RA BR SCT006 OVC010=



000
FTUS46 KSEW 300400 AAA
TAFOLM
TAF AMD
KOLM 300413Z 3004/3024 00000KT 5SM BR BKN120 BKN200
      TEMPO 3004/3008 1/2SM FG
     FM301000 VRB02KT 5SM -RA BR SCT025 OVC040
     FM301600 VRB02KT 4SM -RA BR SCT008 OVC018
     FM302200 18006KT 3SM -RA BR SCT006 OVC010=



000
FTUS46 KSEW 300400 AAA
TAFOLM
TAF AMD
KOLM 300413Z 3004/3024 00000KT 5SM BR BKN120 BKN200
      TEMPO 3004/3008 1/2SM FG
     FM301000 VRB02KT 5SM -RA BR SCT025 OVC040
     FM301600 VRB02KT 4SM -RA BR SCT008 OVC018
     FM302200 18006KT 3SM -RA BR SCT006 OVC010=



000
FTUS46 KSEW 292300
TAFBFI
TAF
KBFI 292325Z 3000/3024 19003KT P6SM FEW020 SCT080 BKN200
     FM300700 12003KT P6SM SCT050 BKN200
     FM301000 VRB03KT P6SM BKN050 OVC120
     FM301400 VRB03KT P6SM -RA OVC050
     FM302200 12006KT P6SM -RA SCT020 OVC035=



000
FTUS46 KSEW 292300
TAFOLM
TAF
KOLM 292325Z 3000/3024 00000KT P6SM FEW030 SCT040 BKN070
     FM300300 VRB02KT P6SM OVC120
     FM301000 VRB02KT 5SM -RA BR SCT025 OVC040
     FM301600 VRB02KT 4SM -RA BR SCT008 OVC018
     FM302200 18006KT 3SM -RA BR SCT006 OVC010=



000
FTUS46 KSEW 292300
TAFPAE
TAF
KPAE 292325Z 3000/3024 15009KT P6SM FEW070 BKN200
     FM300700 12008KT P6SM SCT050 BKN200
     FM301000 10008KT P6SM BKN050 OVC120
     FM301400 10008KT P6SM -RA OVC050
     FM302200 15012KT 4SM -RA BR SCT011 OVC025=



000
FTUS46 KSEW 292300
TAFCLM
TAF
KCLM 292325Z 3000/3024 10006KT P6SM BKN030 OVC040
     FM300200 VRB03KT P6SM SCT040 BKN200
     FM301000 VRB03KT P6SM OVC090
     FM301400 07003KT P6SM -RA SCT025 OVC050
     FM302200 07003KT 3SM -RA BR SCT008 OVC020=



000
FTUS46 KSEW 292300
TAFSEA
TAF
KSEA 292325Z 3000/3106 00000KT P6SM FEW025 SCT070 BKN240
     FM300700 09006KT P6SM SCT050 BKN200
     FM301000 08006KT P6SM BKN050 OVC120
     FM301400 07010KT P6SM -RA OVC050
     FM302200 11008KT 5SM -RA BR SCT015 OVC030=



000
FTUS46 KSEW 292300
TAFBLI
TAF
KBLI 292325Z 3000/3024 13007KT P6SM FEW035 BKN050
     FM300300 04005KT P6SM SCT050 BKN200
     FM301400 04005KT P6SM -RA OVC050
     FM302200 06010KT 5SM -RA BR OVC035=



000
FTUS46 KSEW 292300
TAFHQM
TAF
KHQM 292325Z 3000/3024 09003KT P6SM SKC
     FM300400 07005KT P6SM SCT035 OVC060
     FM300800 07007KT P6SM -RA SCT030 OVC045
     FM301500 09012KT 5SM -RA BR OVC030
     FM302200 15014KT 4SM -RA BR SCT010 OVC022=



000
FTUS46 KSEW 292100 AAA
TAFCLM
TAF AMD
KCLM 292120Z 2921/3018 11007KT P6SM BKN025
     FM300200 VRB03KT P6SM BKN200
     FM301000 VRB03KT P6SM OVC090
     FM301400 07003KT P6SM -RA SCT025 OVC050=



000
FTUS46 KSEW 292100 AAA
TAFSEA
TAF AMD
KSEA 292106Z 2921/3024 18006KT P6SM FEW020 SCT070 BKN200
     FM292300 14005KT P6SM SCT070 BKN200
     FM300700 09006KT P6SM SCT050 BKN200
     FM301000 08006KT P6SM BKN060 OVC120
     FM301400 07010KT P6SM -RA OVC050=



000
FTUS46 KSEW 291700
TAFPAE
TAF
KPAE 291740Z 2918/3018 19011KT P6SM BKN014 OVC021
     FM292000 18008KT P6SM SCT025 SCT050
     FM292300 17007KT P6SM SCT050
     FM300700 10007KT P6SM SCT050 BKN200
     FM301000 10007KT P6SM BKN050 OVC120
     FM301400 10010KT P6SM -RA OVC050=



000
FTUS46 KSEW 291700
TAFOLM
TAF
KOLM 291740Z 2918/3018 19006KT P6SM SCT040 SCT080
     FM292200 16004KT P6SM SCT050 BKN250
     FM300300 VRB02KT P6SM OVC120
     FM301000 VRB02KT 5SM -RA BR SCT025 OVC040=



000
FTUS46 KSEW 291700
TAFBLI
TAF
KBLI 291740Z 2918/3018 16009KT P6SM FEW021 BKN070
     FM292000 15008KT P6SM SCT050
     FM300300 04005KT P6SM BKN200
     FM301400 04005KT P6SM OVC060=



000
FTUS46 KSEW 291700
TAFSEA
TAF
KSEA 291740Z 2918/3024 20008KT P6SM SCT023 SCT040 SCT080
     FM292300 14005KT P6SM SCT040
     FM300700 09006KT P6SM SCT050 BKN200
     FM301000 08006KT P6SM BKN060 OVC120
     FM301400 07010KT P6SM -RA OVC050=



000
FTUS46 KSEW 291700
TAFCLM
TAF
KCLM 291740Z 2918/3018 21004KT P6SM SCT080
     FM300300 VRB03KT P6SM BKN200
     FM301000 VRB03KT P6SM OVC090
     FM301400 07003KT P6SM -RA SCT025 OVC050=



000
FTUS46 KSEW 291700
TAFBFI
TAF
KBFI 291740Z 2918/3018 18008KT P6SM SCT030 SCT080
     FM292300 13005KT P6SM SCT050
     FM300700 12004KT P6SM SCT050 BKN200
     FM301000 VRB03KT P6SM BKN060 OVC120
     FM301400 VRB03KT P6SM -RA OVC050=



000
FTUS46 KSEW 291700
TAFHQM
TAF
KHQM 291740Z 2918/3018 05003KT 6SM BR SCT025 SCT040
     FM292100 07005KT P6SM SCT040
     FM300400 07005KT P6SM SCT035 OVC060
     FM300800 07007KT P6SM -RA SCT030 OVC045
     FM301500 09012KT 5SM -RA BR OVC030=



000
FTUS46 KSEW 291600 AAA
TAFOLM
TAF AMD
KOLM 291628Z 2916/3012 19004KT P6SM SCT050 SCT080
     FM292200 16004KT P6SM SCT050 BKN250=



000
FTUS46 KSEW 291600 AAA
TAFOLM
TAF AMD
KOLM 291628Z 2916/3012 19004KT P6SM SCT050 SCT080
     FM292200 16004KT P6SM SCT050 BKN250=



000
FTUS46 KSEW 291600 AAB
TAFBLI
TAF AMD
KBLI 291625Z 2916/3012 17008KT P6SM SCT021 SCT040 BKN080
      TEMPO 2916/2919 BKN025 BKN040 BKN080
     FM291900 17008KT P6SM SCT020 BKN040
     FM292100 17008KT P6SM SCT040 BKN250=



000
FTUS46 KSEW 291600 AAB
TAFBLI
TAF AMD
KBLI 291625Z 2916/3012 17008KT P6SM SCT021 SCT040 BKN080
      TEMPO 2916/2919 BKN025 BKN040 BKN080
     FM291900 17008KT P6SM SCT020 BKN040
     FM292100 17008KT P6SM SCT040 BKN250=



000
FTUS46 KSEW 291600 AAA
TAFPAE
TAF AMD
KPAE 291624Z 2916/3012 20011KT P6SM BKN013 OVC019
     FM291900 18010KT P6SM SCT025 BKN040
     FM292200 18008KT P6SM SCT040 BKN250=



000
FTUS46 KSEW 291600 AAB
TAFSEA
TAF AMD
KSEA 291623Z 2916/3018 19008KT P6SM SCT023 SCT040 SCT080
      TEMPO 2916/2918 BKN025 BKN040 BKN080
     FM291800 18007KT P6SM BKN020 BKN035
     FM292300 14005KT P6SM SCT040
     FM300800 09006KT P6SM BKN050 OVC080=



000
FTUS46 KSEW 291600 AAA
TAFBFI
TAF AMD
KBFI 291623Z 2916/3012 18010G16KT P6SM SCT030 SCT045 SCT110
     FM291900 17007KT P6SM SCT025 SCT045
     FM292200 19005KT P6SM SCT045 BKN250=



000
FTUS46 KSEW 291500 AAA
TAFSEA
TAF AMD
KSEA 291503Z 2915/3018 18011KT P6SM -SHRA FEW007 BKN010 OVC024
     FM291800 18007KT P6SM BKN020 BKN035
     FM291900 16009KT P6SM SCT020 BKN035
     FM292300 14005KT P6SM SCT040
     FM300800 09006KT P6SM BKN050 OVC080=



000
FTUS46 KSEW 291400 AAA
TAFHQM
TAF AMD
KHQM 291447Z 2915/3012 16003KT 6SM BR SCT019
     FM291700 13005KT P6SM SCT020 SCT050
     FM292100 12005KT P6SM SCT050 BKN100=



000
FTUS46 KSEW 291300 AAA
TAFBLI
TAF AMD
KBLI 291317Z 2913/3012 16010KT P6SM SCT025 BKN060
      TEMPO 2913/2916 -SHRA BKN025 OVC060
     FM291600 16010KT P6SM BKN025 OVC040
     FM291900 17008KT P6SM SCT020 BKN040
     FM292100 17008KT P6SM SCT040 BKN250=



000
FTUS46 KSEW 291100
TAFSEA
TAF
KSEA 291120Z 2912/3018 17010KT P6SM SCT025 BKN040
      TEMPO 2912/2916 -SHRA BKN025 BKN040
     FM291600 18010KT P6SM BKN020 BKN040
     FM291900 20009KT P6SM SCT020 BKN040
     FM292200 21006KT P6SM SCT045 BKN250
     FM300800 09006KT P6SM BKN050 OVC080=



000
FTUS46 KSEW 291100
TAFHQM
TAF
KHQM 291120Z 2912/3012 21012KT 6SM BR SCT020 BKN050
      TEMPO 2912/2914 -SHRA BKN020 BKN050
     FM291400 21010KT 6SM BR VCSH BKN020 BKN050
     FM291700 19007KT P6SM SCT020 BKN050
     FM292100 15007KT P6SM SCT050 BKN100=



000
FTUS46 KSEW 291100
TAFBLI
TAF
KBLI 291120Z 2912/3012 16012G20KT P6SM BKN020 OVC040
      TEMPO 2912/2916 -SHRA BKN015 OVC040
     FM291600 16012KT P6SM BKN015 OVC040
     FM291900 17008KT P6SM SCT020 BKN040
     FM292100 17008KT P6SM SCT040 BKN250=



000
FTUS46 KSEW 291100
TAFCLM
TAF
KCLM 291120Z 2912/3012 VRB03KT P6SM SCT020 BKN050
      TEMPO 2912/2916 -SHRA BKN020 BKN050
     FM291600 26003KT P6SM SCT020 BKN050
     FM291800 VRB03KT P6SM SCT050 BKN250=



000
FTUS46 KSEW 291100
TAFBFI
TAF
KBFI 291120Z 2912/3012 15007KT P6SM SCT025 BKN040
      TEMPO 2912/2916 -SHRA BKN025 BKN040
     FM291600 16008KT P6SM BKN025 BKN040
     FM291900 17007KT P6SM SCT025 BKN045
     FM292200 19005KT P6SM SCT045 BKN250=



000
FTUS46 KSEW 291100
TAFOLM
TAF
KOLM 291120Z 2912/3012 20008KT P6SM SCT020 BKN040 BKN060
      TEMPO 2912/2916 -SHRA BKN015 OVC045
     FM291600 20007KT P6SM BKN015 BKN045
     FM291900 20006KT P6SM SCT020 BKN050
     FM292200 19006KT P6SM SCT050 BKN250=



000
FTUS46 KSEW 291100
TAFPAE
TAF
KPAE 291120Z 2912/3012 18012G22KT P6SM SCT015 BKN040
      TEMPO 2912/2916 -SHRA BKN015 BKN040
     FM291600 18012KT P6SM BKN015 BKN040
     FM291900 18010KT P6SM SCT025 BKN040
     FM292200 18008KT P6SM SCT040 BKN250=



000
FTUS46 KSEW 290900 AAA
TAFSEA
TAF AMD
KSEA 290904Z 2909/3012 17010KT P6SM SCT025 BKN040
      TEMPO 2909/2912 -SHRA BKN025 BKN040
     FM291200 18010KT P6SM VCSH BKN020 BKN040
     FM291800 19008KT P6SM BKN040
     FM292200 21006KT P6SM SCT040 BKN250=



000
FTUS46 KSEW 290500
TAFPAE
TAF
KPAE 290534Z 2906/3006 18012G22KT P6SM -SHRA BKN025 OVC045
      TEMPO 2906/2910 SCT025 OVC045
     FM291000 18012KT P6SM VCSH BKN015 BKN040
      TEMPO 2912/2916 BKN008 OVC015
     FM291900 18010KT P6SM SCT025 BKN040
     FM292200 18008KT P6SM SCT040 BKN250=



000
FTUS46 KSEW 290500
TAFBLI
TAF
KBLI 290534Z 2906/3006 16012G22KT P6SM -SHRA BKN020 OVC040
     FM290900 16010G20KT P6SM VCSH BKN015 OVC040
     FM291200 16010KT P6SM BKN015 OVC040
     FM291700 17008KT P6SM SCT020 BKN040
     FM292100 17008KT P6SM SCT040 BKN250=



000
FTUS46 KSEW 290500
TAFHQM
TAF
KHQM 290534Z 2906/3006 19012KT P6SM -SHRA SCT025 BKN040
     FM290900 19010KT P6SM VCSH BKN015 BKN040
     FM291800 15006KT P6SM SCT020 BKN045
     FM292100 13008KT P6SM SCT045 BKN250=



000
FTUS46 KSEW 290500
TAFOLM
TAF
KOLM 290534Z 2906/3006 20008KT P6SM -SHRA BKN020 OVC040
      TEMPO 2906/2910 5SM -SHRA BR BKN008 OVC020
     FM291000 19008KT P6SM VCSH BKN012 OVC040
     FM291900 19006KT P6SM SCT020 BKN050
     FM292200 16005KT P6SM SCT050 BKN250=



000
FTUS46 KSEW 290500
TAFBFI
TAF
KBFI 290534Z 2906/3006 15008KT P6SM VCSH SCT030 BKN050
      TEMPO 2906/2909 -SHRA BKN030 BKN050
     FM290900 16008KT P6SM VCSH BKN025 BKN045
     FM291800 17006KT P6SM BKN045
     FM292200 19005KT P6SM SCT045 BKN250=



000
FTUS46 KSEW 290500
TAFSEA
TAF
KSEA 290534Z 2906/3012 17010KT P6SM VCSH SCT025 BKN045
      TEMPO 2906/2909 -SHRA BKN025 BKN040
     FM290900 18010KT P6SM VCSH BKN020 BKN040
     FM291800 19008KT P6SM BKN040
     FM292200 21006KT P6SM SCT040 BKN250=



000
FTUS46 KSEW 290500
TAFCLM
TAF
KCLM 290534Z 2906/3006 26004KT P6SM -SHRA SCT020 BKN040 OVC060
      TEMPO 2910/2914 BKN020 OVC040
     FM291400 26004KT P6SM SCT020 BKN040
     FM291800 VRB03KT P6SM BKN050
     FM292100 04003KT P6SM SCT050 BKN250=



000
FTUS46 KSEW 290300 AAA
TAFSEA
TAF AMD
KSEA 290308Z 2903/3006 17010KT P6SM VCSH SCT025 BKN040
      TEMPO 2905/2908 -SHRA BKN025 BKN040
     FM290800 18008KT P6SM VCSH BKN020 BKN040
     FM291800 19008KT P6SM BKN040=



000
FTUS46 KSEW 282300
TAFOLM
TAF
KOLM 282322Z 2900/2924 20010KT P6SM -SHRA FEW015 BKN030 BKN045
     FM290300 20010KT P6SM -SHRA BKN025 OVC040
     FM290600 18008KT P6SM -SHRA OVC015
     FM291800 19005KT P6SM BKN030=



000
FTUS46 KSEW 282300
TAFCLM
TAF
KCLM 282322Z 2900/2924 VRB03KT P6SM -SHRA SCT020 BKN030 BKN040
     FM290300 26004KT P6SM -SHRA BKN030 OVC040
     FM290600 26004KT P6SM -SHRA OVC020
     FM291800 VRB03KT P6SM BKN030
      AMD NOT SKED=



000
FTUS46 KSEW 282300
TAFHQM
TAF
KHQM 282322Z 2900/2924 18015G25KT P6SM -SHRA FEW015 BKN030 BKN040
     FM290300 18012KT P6SM -SHRA BKN025 OVC040
     FM290600 18010KT P6SM -SHRA OVC018
     FM291800 10005KT P6SM BKN030=



000
FTUS46 KSEW 282300
TAFBLI
TAF
KBLI 282322Z 2900/2924 16012G22KT P6SM -SHRA BKN025 BKN040
     FM290300 16010KT P6SM -SHRA OVC020
     FM291800 17006KT P6SM BKN030=



000
FTUS46 KSEW 282300
TAFPAE
TAF
KPAE 282322Z 2900/2924 16012G20KT P6SM -SHRA FEW025 BKN040 BKN060
      TEMPO 2900/2903 4SM -SHRA BKN007 BKN020
     FM290300 19012KT P6SM -SHRA BKN025 OVC040
     FM290600 18008KT P6SM -SHRA OVC018
     FM291800 19008KT P6SM BKN030=



000
FTUS46 KSEW 282300
TAFSEA
TAF
KSEA 282322Z 2900/3006 17012KT P6SM -SHRA FEW025 BKN040 BKN060
     FM290300 19010KT P6SM -SHRA BKN025 OVC040
     FM290600 18008KT P6SM -SHRA OVC020
     FM291800 19008KT P6SM BKN030=



000
FTUS46 KSEW 282300
TAFBFI
TAF
KBFI 282322Z 2900/2924 16010KT P6SM -SHRA FEW025 BKN040 BKN060
     FM290300 19010KT P6SM -SHRA BKN025 OVC040
     FM290600 18008KT P6SM -SHRA OVC020
     FM291800 19008KT P6SM BKN030=



000
FTUS46 KSEW 282100 AAA
TAFBFI
TAF AMD
KBFI 282102Z 2821/2918 18010G20KT P6SM -SHRA BKN030 BKN040
     FM290300 19010KT P6SM -SHRA BKN025 OVC040
     FM290600 17006KT P6SM -SHRA OVC025=



000
FTUS46 KSEW 282100 AAA
TAFSEA
TAF AMD
KSEA 282101Z 2821/2924 18010G20KT P6SM -SHRA BKN030 BKN040
     FM290300 19010KT P6SM -SHRA BKN025 OVC040
     FM290600 18008KT P6SM -SHRA OVC020=



000
FTUS46 KSEW 281700
TAFPAE
TAF
KPAE 281732Z 2818/2918 14008KT P6SM -SHRA SCT015 BKN025 OVC040
      TEMPO 2818/2819 2SM SHRA BKN004
     FM281900 17012G20KT P6SM -SHRA BKN020 OVC040
     FM282200 18015G25KT P6SM -SHRA SCT025 BKN040
     FM290300 19012KT P6SM -SHRA BKN025 OVC040
     FM290600 18010KT P6SM -SHRA OVC020=



000
FTUS46 KSEW 281700
TAFOLM
TAF
KOLM 281732Z 2818/2918 20012G20KT P6SM -SHRA SCT015 BKN025 OVC040
     FM282200 20012G20KT P6SM -SHRA SCT025 BKN045
     FM290300 20010KT P6SM -SHRA BKN025 OVC040
     FM290600 18008KT P6SM -SHRA OVC018=



000
FTUS46 KSEW 281700
TAFBFI
TAF
KBFI 281732Z 2818/2918 15008KT P6SM -SHRA BKN030 OVC045
      TEMPO 2818/2819 3SM SHRA SCT009 BKN020
     FM281900 18012G20KT P6SM -SHRA BKN030 OVC045
     FM282200 19014G22KT P6SM -SHRA SCT025 BKN040
     FM290300 19010KT P6SM -SHRA BKN025 OVC040
     FM290600 17006KT P6SM -SHRA OVC025=



000
FTUS46 KSEW 281700
TAFCLM
TAF
KCLM 281732Z 2818/2918 VRB05KT P6SM -SHRA SCT030 BKN040 OVC070
     FM282200 VRB03KT P6SM -SHRA BKN040 BKN070
     FM290300 26004KT P6SM -SHRA BKN030 OVC040
      AMD NOT SKED=



000
FTUS46 KSEW 281700
TAFBLI
TAF
KBLI 281732Z 2818/2918 17012G28KT P6SM -RA BKN030 OVC060
     FM282300 18010G22KT P6SM -SHRA SCT030 BKN060
     FM290300 16011KT P6SM -SHRA BKN030 OVC040=



000
FTUS46 KSEW 281700
TAFHQM
TAF
KHQM 281732Z 2818/2918 16015G25KT 4SM -SHRA SCT008 BKN030 OVC040
      TEMPO 2818/2819 2SM SHRA BKN012
     FM281900 18015G25KT P6SM -SHRA BKN015 OVC040
     FM282100 23014G22KT P6SM -SHRA BKN030 BKN060
     FM290300 18012KT P6SM -SHRA BKN025 OVC040=



000
FTUS46 KSEW 281700
TAFSEA
TAF
KSEA 281732Z 2818/2924 13008KT P6SM -SHRA BKN030 OVC045
      TEMPO 2818/2819 3SM SHRA SCT010 BKN022
     FM281900 18012G20KT P6SM -SHRA BKN030 OVC045
     FM282200 19014G22KT P6SM -SHRA SCT025 BKN040
     FM290300 19010KT P6SM -SHRA BKN025 OVC040
     FM290600 18008KT P6SM -SHRA OVC020=



000
FTUS46 KSEW 281500 AAA
TAFSEA
TAF AMD
KSEA 281504Z 2815/2918 13008KT P6SM -SHRA BKN030 OVC045
      TEMPO 2815/2818 4SM SHRA BKN025
     FM281800 18012G20KT P6SM -SHRA BKN025 OVC040
     FM282200 19014G22KT P6SM -SHRA SCT025 BKN040=



000
FTUS46 KSEW 281100
TAFHQM
TAF
KHQM 281123Z 2812/2912 06010KT 3SM -RA BR BKN008 OVC014
     FM281400 16015G25KT 4SM -RA BR BKN008 OVC015
     FM281700 23015G25KT P6SM -SHRA BKN015 OVC040
     FM282100 23014G22KT P6SM -SHRA BKN030 BKN060=



000
FTUS46 KSEW 281100
TAFOLM
TAF
KOLM 281123Z 2812/2912 VRB03KT 4SM -RA BR SCT030 OVC045
     FM281400 20010KT P6SM -RA BKN025 OVC040
     FM281900 20012G20KT P6SM -SHRA BKN020 OVC040
     FM282200 20012G20KT P6SM -SHRA SCT025 BKN045=



000
FTUS46 KSEW 281100
TAFCLM
TAF
KCLM 281123Z 2812/2912 VRB03KT P6SM -RA BKN050 OVC070
     FM281600 VRB03KT P6SM -SHRA SCT025 BKN060
     FM282300 VRB03KT P6SM VCSH BKN070=



000
FTUS46 KSEW 281100
TAFPAE
TAF
KPAE 281123Z 2812/2912 15012G24KT P6SM -RA OVC030
     FM281500 17014G25KT P6SM -RA BKN025 OVC040
     FM282200 18015G25KT P6SM -SHRA SCT025 OVC040=



000
FTUS46 KSEW 281100
TAFSEA
TAF
KSEA 281123Z 2812/2918 13010KT P6SM -RA BKN030 OVC045
     FM281500 17012KT P6SM -RA BKN025 OVC040
     FM281800 18012G20KT P6SM -SHRA BKN025 OVC040
     FM282200 19014G22KT P6SM -SHRA SCT025 BKN040=



000
FTUS46 KSEW 281100
TAFBFI
TAF
KBFI 281123Z 2812/2912 15006KT P6SM -RA BKN035 OVC050
     FM281500 16008KT P6SM -RA BKN030 OVC045
     FM281800 16010KT P6SM -SHRA BKN030 OVC045
     FM282200 17012KT P6SM -SHRA SCT030 BKN045=



000
FTUS46 KSEW 281100
TAFBLI
TAF
KBLI 281123Z 2812/2912 14018G30KT P6SM BKN045 OVC070
      TEMPO 2812/2815 4SM -RA BKN030 OVC050
     FM281500 18016G30KT P6SM -RA BKN030 OVC060
     FM281800 18014G28KT P6SM -SHRA BKN030 BKN060
     FM282200 18012G22KT P6SM -SHRA SCT030 BKN060=



000
FTUS46 KSEW 280900 AAA
TAFSEA
TAF AMD
KSEA 280908Z 2809/2912 13007KT P6SM -RA OVC060
     FM281200 13010KT P6SM -RA OVC030
     FM281500 17012KT P6SM -RA BKN025 OVC040
     FM281900 19012KT P6SM -SHRA BKN040=



000
FTUS46 KSEW 280800 AAA
TAFBLI
TAF AMD
KBLI 280801Z 2808/2906 14015G25KT P6SM -RA OVC050
     FM281300 14018G30KT 4SM -RA BKN030 OVC050
     FM281500 18016G30KT 6SM -RA BR OVC030
     FM281800 18012G20KT P6SM -SHRA BKN015 OVC030=



000
FTUS46 KSEW 280800 AAA
TAFBLI
TAF AMD
KBLI 280801Z 2808/2906 14015G25KT P6SM -RA OVC050
     FM281300 14018G30KT 4SM -RA BKN030 OVC050
     FM281500 18016G30KT 6SM -RA BR OVC030
     FM281800 18012G20KT P6SM -SHRA BKN015 OVC030=



000
FTUS46 KSEW 280500
TAFBFI
TAF
KBFI 280535Z 2806/2906 13006KT P6SM -RA OVC060
     FM281200 13006KT P6SM -RA OVC035
     FM281500 16008KT P6SM -RA BKN030 OVC045
     FM281900 17010KT P6SM -SHRA BKN045=



000
FTUS46 KSEW 280500
TAFBLI
TAF
KBLI 280535Z 2806/2906 03005KT P6SM -RA OVC060
     FM281000 14015G25KT P6SM -RA OVC050
     FM281300 14020G35KT 4SM -RA BKN030 OVC050
     FM281500 18016G30KT 6SM -RA BR OVC030
     FM281800 18012G20KT P6SM -SHRA BKN015 OVC030=



000
FTUS46 KSEW 280500
TAFSEA
TAF
KSEA 280535Z 2806/2912 13007KT P6SM -RA OVC060
     FM281200 13010KT P6SM -RA OVC030
     FM281500 17012KT P6SM -RA BKN025 OVC040
     FM281900 19012KT P6SM -SHRA BKN040=



000
FTUS46 KSEW 280500
TAFPAE
TAF
KPAE 280535Z 2806/2906 15010KT P6SM -RA OVC060
     FM281200 15012G24KT P6SM -RA OVC030
     FM281500 17014G25KT P6SM -RA BKN025 OVC040
     FM281900 18015G25KT P6SM -SHRA BKN020 OVC040=



000
FTUS46 KSEW 280500
TAFHQM
TAF
KHQM 280535Z 2806/2906 06010KT 4SM -RA BR OVC060
     FM280900 12015G25KT 4SM -RA BR OVC030
     FM281100 16015G25KT 3SM -RA BR OVC015
     FM281300 18015G30KT 2SM -RA BR BKN006 OVC012
     FM281700 23014G22KT P6SM -SHRA BKN015 OVC040
     FM282000 23014G22KT P6SM -SHRA BKN030 BKN060=



000
FTUS46 KSEW 280500
TAFCLM
TAF
KCLM 280535Z 2806/2906 VRB03KT P6SM -RA SCT010 OVC060
      TEMPO 2806/2810 BKN010 OVC060
     FM281000 VRB03KT 6SM -RA BR BKN010 OVC040
     FM281600 27005KT P6SM -SHRA SCT010 BKN050
     FM281900 27005KT P6SM VCSH BKN050=



000
FTUS46 KSEW 280500
TAFOLM
TAF
KOLM 280535Z 2806/2906 19004KT P6SM -RA OVC060
     FM281200 20010KT P6SM -RA BKN025 OVC040
     FM281900 20012KT P6SM -SHRA BKN020 OVC040=



000
FTUS46 KSEW 280300 AAA
TAFSEA
TAF AMD
KSEA 280308Z 2803/2906 12007KT P6SM OVC080
     FM280500 15009KT P6SM -RA BKN040 OVC080
     FM281500 18010KT P6SM -SHRA BKN025 OVC050
     FM282100 19012KT P6SM -SHRA BKN030=



000
FTUS46 KSEW 272300
TAFBFI
TAF
KBFI 272332Z 2800/2824 15007KT P6SM SCT040 BKN070 OVC120
     FM280300 15009KT P6SM -RA BKN040 OVC080
     FM281500 18010KT P6SM -SHRA BKN030 OVC050
     FM282100 19012KT P6SM -SHRA BKN035=



000
FTUS46 KSEW 272300
TAFCLM
TAF
KCLM 272332Z 2800/2824 08003KT P6SM -RA SCT040 BKN070 OVC120
     FM280300 08006KT P6SM -RA OVC040
     FM281400 24005KT P6SM -SHRA BKN025
     FM281800 VRB04KT P6SM -SHRA BKN030
      AMD NOT SKED=



000
FTUS46 KSEW 272300
TAFPAE
TAF
KPAE 272332Z 2800/2824 16010KT P6SM BKN040 OVC120
      TEMPO 2800/2803 16012G20KT
     FM280300 17015G25KT P6SM -RA BKN040 OVC080
     FM281500 18012G20KT P6SM -SHRA BKN025 OVC050
     FM282100 18012KT P6SM -SHRA BKN030=



000
FTUS46 KSEW 272300
TAFHQM
TAF
KHQM 272332Z 2800/2824 09010KT P6SM VCSH BKN040 OVC070
     FM280100 10012KT P6SM -RA OVC040
     FM280300 16015G25KT P6SM -RA OVC030
     FM280600 14020G35KT 4SM -RA BR SCT015 OVC030
     FM281200 20014G22KT 2SM -SHRA BKN015 OVC040
     FM281800 18014G22KT P6SM -SHRA BKN030=



000
FTUS46 KSEW 272300
TAFSEA
TAF
KSEA 272332Z 2800/2906 15007KT P6SM SCT040 BKN070 OVC120
     FM280300 15009KT P6SM -RA BKN040 OVC080
     FM281500 18010KT P6SM -SHRA BKN025 OVC050
     FM282100 19012KT P6SM -SHRA BKN030=



000
FTUS46 KSEW 272300
TAFBLI
TAF
KBLI 272332Z 2800/2824 03006KT P6SM -RA SCT040 BKN080 OVC120
     FM280300 13012G20KT P6SM -RA BKN040 OVC100
     FM280600 14015G25KT P6SM -RA OVC030
     FM281200 14020G35KT 4SM -RA SCT015 OVC030
     FM281500 18014G22KT 6SM -SHRA BR SCT020 OVC030
     FM281800 15012G20KT P6SM -SHRA BKN030=



000
FTUS46 KSEW 272300
TAFOLM
TAF
KOLM 272332Z 2800/2824 18010KT P6SM SCT040 BKN070 OVC120
     FM280300 18010KT P6SM -RA BKN040 OVC080
     FM281500 20011KT P6SM -SHRA BKN020 OVC050
     FM282100 20011KT P6SM -SHRA BKN030=



000
FTUS46 KSEW 272100 AAA
TAFSEA
TAF AMD
KSEA 272103Z 2721/2824 13005KT P6SM SCT050 BKN120 BKN200
     FM280000 15007KT P6SM SCT040 BKN070 OVC100
     FM280300 15009KT P6SM -RA BKN040 OVC080
     FM281800 18010KT P6SM -SHRA BKN030=



000
FTUS46 KSEW 271700
TAFBFI
TAF
KBFI 271739Z 2718/2818 13005KT P6SM SCT030 BKN120
      TEMPO 2718/2719 FEW012
     FM280000 15007KT P6SM SCT040 BKN070 OVC100
     FM280300 15009KT P6SM -RA BKN040 OVC080=



000
FTUS46 KSEW 271700
TAFBLI
TAF
KBLI 271739Z 2718/2818 14008KT P6SM BKN120
     FM280000 13012G20KT P6SM BKN040 OVC100
     FM280300 14015G25KT P6SM -RA OVC030
     FM280900 14020G35KT 4SM -RA BR SCT015 OVC030
     FM281400 18014KT 6SM -RA BR OVC030=



000
FTUS46 KSEW 271700
TAFCLM
TAF
KCLM 271739Z 2718/2818 VRB03KT P6SM SCT040 BKN120
     FM272100 09004KT P6SM SCT040 BKN080 BKN120
     FM280000 08003KT P6SM -RA BKN040 OVC100
     FM280300 08006KT P6SM -RA OVC040
      AMD NOT SKED=



000
FTUS46 KSEW 271700
TAFHQM
TAF
KHQM 271739Z 2718/2818 10010KT P6SM VCSH SCT040 BKN060 BKN080
      TEMPO 2718/2720 4SM -SHRA
     FM272000 11012KT P6SM VCSH BKN040 OVC080
     FM280000 12012KT P6SM -RA OVC040
     FM280300 16015G25KT P6SM -RA OVC030
     FM280600 14020G35KT 4SM -RA BR SCT015 OVC030
     FM281200 20014KT P6SM -SHRA BKN025=



000
FTUS46 KSEW 271700
TAFPAE
TAF
KPAE 271739Z 2718/2818 16005KT P6SM SCT030 BKN120
      TEMPO 2718/2719 FEW022
     FM272100 16010KT P6SM SCT030 BKN120
     FM280000 16012G20KT P6SM SCT040 BKN070 OVC100
     FM280300 17015G25KT P6SM -RA BKN040 OVC080=



000
FTUS46 KSEW 271700
TAFOLM
TAF
KOLM 271739Z 2718/2818 18004KT P6SM SCT040 BKN070 BKN120
      TEMPO 2718/2719 SCT003
     FM280000 18010KT P6SM SCT040 BKN070 OVC100
     FM280300 18010KT P6SM -RA BKN040 OVC080=



000
FTUS46 KSEW 271700
TAFSEA
TAF
KSEA 271739Z 2718/2824 13005KT P6SM SCT030 BKN120
     FM280000 15007KT P6SM SCT040 BKN070 OVC100
     FM280300 15009KT P6SM -RA BKN040 OVC080
     FM281800 18010KT P6SM -SHRA BKN030=



    US Dept of Commerce
    National Oceanic and Atmospheric Administration
    National Weather Service
    1325 East West Highway
    Silver Spring, MD 20910
    Page Author: NWS Internet Services Team
Disclaimer
Information Quality
Credits
Glossary
Privacy Policy
Freedom of Information Act (FOIA)
About Us
Career Opportunities